Seven Hills, Ohio
Current Conditions -  °F | °C
As of 4:53 PM on Wednesday 28 Jan 2015 (Local Time) from KBKL Reporting Station
Clear Clear  
Wind Chill: 22°   Ceiling: Unl
Heat Index: 22°   Visibility: 10mi
Dew Point: 16°   Wind: 3mph
Humidity: 78%   Direction: 30°NNE
Pressure: 30.3"   Gusts: NA
Location:  41.3833°N, 81.6531°W
Report Text: KBKL 282153Z 03003KT 10SM CLR M06/M09 A3030 RMK AO2 SLP272 T10561089
Loading
Personal Weather Stations






























Interactive Weather Map New forecast layout! Learn more

10-Day Weather Forecast

Advertisements
Track Severe Weather on mobile